createdAt,value
2019-01-03T00:01:56.969Z,10.80
2019-01-03T00:04:50.748Z,10.75
2019-01-03T00:07:50.302Z,12.73
2019-01-03T00:10:43.442Z,13.45
2019-01-03T00:13:23.080Z,12.45
2019-01-03T00:16:13.217Z,12.00
2019-01-03T00:19:21.716Z,12.40
2019-01-03T00:22:10.623Z,13.25
2019-01-03T00:25:09.898Z,12.10
2019-01-03T00:27:52.462Z,12.35
2019-01-03T00:30:41.447Z,11.83
2019-01-03T00:33:34.842Z,12.47
2019-01-03T00:36:15.198Z,11.73
2019-01-03T00:39:00.419Z,12.10
2019-01-03T00:41:51.274Z,11.65
2019-01-03T00:44:41.482Z,12.98
2019-01-03T00:47:36.182Z,12.68
2019-01-03T00:50:38.276Z,12.53
2019-01-03T00:53:29.414Z,11.90
2019-01-03T00:56:25.006Z,11.95
2019-01-03T00:59:24.661Z,12.80
2019-01-03T01:02:13.420Z,12.37
2019-01-03T01:05:17.207Z,11.60
2019-01-03T01:08:25.200Z,12.10
2019-01-03T01:11:15.180Z,11.73
2019-01-03T01:14:03.845Z,12.53
2019-01-03T01:16:48.584Z,12.78
2019-01-03T01:19:38.780Z,12.07
2019-01-03T01:22:27.792Z,12.70
2019-01-03T01:25:15.550Z,12.45
2019-01-03T01:28:04.508Z,13.48
2019-01-03T01:30:54.839Z,12.40
2019-01-03T01:33:43.583Z,12.23
2019-01-03T01:36:28.123Z,12.50
2019-01-03T01:39:27.825Z,12.43
2019-01-03T01:42:16.954Z,12.40
2019-01-03T01:45:07.097Z,12.30
2019-01-03T01:48:09.357Z,12.25
2019-01-03T01:50:58.551Z,12.28
2019-01-03T01:53:48.508Z,11.22
2019-01-03T01:56:37.287Z,12.47
2019-01-03T01:59:26.102Z,10.95
2019-01-03T02:02:19.194Z,12.10
2019-01-03T02:05:09.288Z,11.63
2019-01-03T02:08:17.947Z,11.25
2019-01-03T02:11:06.640Z,10.82
2019-01-03T02:14:00.127Z,10.80
2019-01-03T02:16:53.491Z,10.85
2019-01-03T02:20:00.768Z,10.80
2019-01-03T02:22:42.059Z,10.72
2019-01-03T02:25:28.526Z,11.33
2019-01-03T02:28:21.561Z,11.10
2019-01-03T02:31:10.650Z,10.18
2019-01-03T02:34:03.633Z,11.48
2019-01-03T02:36:48.302Z,10.72
2019-01-03T02:39:47.800Z,10.00
2019-01-03T02:42:41.194Z,11.60
2019-01-03T02:45:30.155Z,10.53
2019-01-03T02:48:17.033Z,10.88
2019-01-03T02:51:05.720Z,11.10
2019-01-03T02:53:54.317Z,11.68
2019-01-03T02:56:47.429Z,11.65
2019-01-03T02:59:37.614Z,10.90
2019-01-03T03:02:27.874Z,10.60
2019-01-03T03:05:16.551Z,10.85
2019-01-03T03:08:05.136Z,12.07
2019-01-03T03:11:10.519Z,10.58
2019-01-03T03:14:01.012Z,11.35
2019-01-03T03:16:51.379Z,11.03
2019-01-03T03:19:40.032Z,11.35
2019-01-03T03:22:30.511Z,15.30
2019-01-03T03:25:26.611Z,10.93
2019-01-03T03:28:16.163Z,11.28
2019-01-03T03:31:05.097Z,11.05
2019-01-03T03:34:10.263Z,11.08
2019-01-03T03:37:03.431Z,11.45
2019-01-03T03:39:57.926Z,11.00
2019-01-03T03:42:55.148Z,11.57
2019-01-03T03:45:44.029Z,12.35
2019-01-03T03:48:33.853Z,12.37
2019-01-03T03:51:27.683Z,15.03
2019-01-03T03:54:29.937Z,14.03
2019-01-03T03:57:26.157Z,14.40
2019-01-03T04:00:22.130Z,16.17
2019-01-03T04:03:12.160Z,12.95
2019-01-03T04:06:08.127Z,14.83
2019-01-03T04:08:54.625Z,14.15
2019-01-03T04:11:43.647Z,14.03
2019-01-03T04:14:32.054Z,12.23
2019-01-03T04:17:22.236Z,15.30
2019-01-03T04:20:12.580Z,12.95
2019-01-03T04:23:18.273Z,12.23
2019-01-03T04:26:08.687Z,13.50
2019-01-03T04:28:56.993Z,12.63
2019-01-03T04:31:49.956Z,14.05
2019-01-03T04:34:48.955Z,13.13
2019-01-03T04:37:57.526Z,11.30
2019-01-03T04:40:46.458Z,11.20
2019-01-03T04:43:45.694Z,12.90
2019-01-03T04:46:36.619Z,11.18
2019-01-03T04:49:35.680Z,12.50
2019-01-03T04:52:40.942Z,11.00
2019-01-03T04:55:31.054Z,11.05
2019-01-03T04:58:27.206Z,11.97
2019-01-03T05:01:55.395Z,11.05
2019-01-03T05:04:48.721Z,12.35
2019-01-03T05:07:41.338Z,12.95
2019-01-03T05:10:31.509Z,12.07
2019-01-03T05:13:19.140Z,12.43
2019-01-03T05:16:18.633Z,11.22
2019-01-03T05:19:07.806Z,12.18
2019-01-03T05:21:56.659Z,11.48
2019-01-03T05:24:55.908Z,12.50
2019-01-03T05:27:39.798Z,12.60
2019-01-03T05:30:28.437Z,10.98
2019-01-03T05:33:21.618Z,12.10
2019-01-03T05:36:14.724Z,11.33
2019-01-03T05:39:08.028Z,12.00
2019-01-03T05:42:01.292Z,11.48
2019-01-03T05:44:47.870Z,11.05
2019-01-03T05:47:47.417Z,12.35
2019-01-03T05:50:36.407Z,11.73
2019-01-03T05:53:26.599Z,11.88
2019-01-03T05:56:15.071Z,11.25
2019-01-03T05:59:11.305Z,11.53
2019-01-03T06:02:13.357Z,11.30
2019-01-03T06:05:12.464Z,10.53
2019-01-03T06:08:17.356Z,11.03
2019-01-03T06:10:57.491Z,10.80
2019-01-03T06:14:02.394Z,10.72
2019-01-03T06:16:52.157Z,9.85
2019-01-03T06:19:57.321Z,10.20
2019-01-03T06:22:46.187Z,10.70
2019-01-03T06:25:37.367Z,11.35
2019-01-03T06:28:27.801Z,9.90
2019-01-03T06:31:23.830Z,10.50
2019-01-03T06:34:12.735Z,10.95
2019-01-03T06:37:03.009Z,10.00
2019-01-03T06:39:56.367Z,10.78
2019-01-03T06:42:45.080Z,10.95
2019-01-03T06:45:34.046Z,10.30
2019-01-03T06:48:23.040Z,11.53
2019-01-03T06:51:15.995Z,13.85
2019-01-03T06:54:09.038Z,12.10
2019-01-03T06:57:17.723Z,12.33
2019-01-03T07:00:07.005Z,11.43
2019-01-03T07:02:57.256Z,11.03
2019-01-03T07:05:50.505Z,11.48
2019-01-03T07:08:43.681Z,10.70
2019-01-03T07:11:40.003Z,11.85
2019-01-03T07:14:28.918Z,12.15
2019-01-03T07:17:19.109Z,10.88
2019-01-03T07:20:12.235Z,11.43
2019-01-03T07:23:08.539Z,11.60
2019-01-03T07:26:01.368Z,12.00
2019-01-03T07:28:50.412Z,12.30
2019-01-03T07:31:43.301Z,11.90
2019-01-03T07:34:32.547Z,12.28
2019-01-03T07:37:25.419Z,11.25
2019-01-03T07:40:21.916Z,11.70
2019-01-03T07:43:10.660Z,12.47
2019-01-03T07:46:12.489Z,13.43
2019-01-03T07:49:14.969Z,14.07
2019-01-03T07:52:07.931Z,14.73
2019-01-03T07:55:04.158Z,13.20
2019-01-03T07:57:57.356Z,11.40
2019-01-03T08:00:53.539Z,15.50
2019-01-03T08:03:55.790Z,11.60
2019-01-03T08:06:45.126Z,14.83
2019-01-03T08:09:50.456Z,12.80
2019-01-03T08:12:55.449Z,12.58
2019-01-03T08:15:45.675Z,14.18
2019-01-03T08:18:26.083Z,13.98
2019-01-03T08:21:22.061Z,13.50
2019-01-03T08:24:12.311Z,13.08
2019-01-03T08:27:02.385Z,12.90
2019-01-03T08:30:04.601Z,14.25
2019-01-03T08:32:51.537Z,13.15
2019-01-03T08:36:01.528Z,11.50
2019-01-03T08:38:52.403Z,11.50
2019-01-03T08:41:41.620Z,11.40
2019-01-03T08:44:43.868Z,12.50
2019-01-03T08:47:32.690Z,11.28
2019-01-03T08:50:28.878Z,12.07
2019-01-03T08:53:19.273Z,11.65
2019-01-03T08:56:27.512Z,10.58
2019-01-03T08:59:23.637Z,9.60
2019-01-03T09:02:13.732Z,11.12
2019-01-03T09:05:04.060Z,11.88
2019-01-03T09:08:01.608Z,9.88
2019-01-03T09:10:51.852Z,9.68
2019-01-03T09:13:33.679Z,9.20
2019-01-03T09:16:29.477Z,9.93
2019-01-03T09:19:20.591Z,9.60
2019-01-03T09:22:16.846Z,9.38
2019-01-03T09:25:05.550Z,8.73
2019-01-03T09:27:54.510Z,8.13
2019-01-03T09:30:45.536Z,14.70
2019-01-03T09:33:34.328Z,12.00
2019-01-03T09:36:22.756Z,8.83
2019-01-03T09:39:11.653Z,8.70
2019-01-03T09:42:11.512Z,9.15
2019-01-03T09:44:46.101Z,8.43
2019-01-03T09:47:17.528Z,8.63
2019-01-03T09:49:49.135Z,8.55
2019-01-03T09:52:20.478Z,8.63
2019-01-03T09:54:51.998Z,35.75
2019-01-03T09:57:23.193Z,12.30
2019-01-03T09:59:54.528Z,9.25
2019-01-03T10:02:25.972Z,8.60
2019-01-03T10:04:57.095Z,9.60
2019-01-03T10:07:28.540Z,9.70
2019-01-03T10:10:00.018Z,9.33
2019-01-03T10:12:31.501Z,9.33
2019-01-03T10:15:03.034Z,9.00
2019-01-03T10:17:34.367Z,10.58
2019-01-03T10:20:06.412Z,8.88
2019-01-03T10:22:38.408Z,9.93
2019-01-03T10:25:09.715Z,8.50
2019-01-03T10:27:41.218Z,8.85
2019-01-03T10:30:12.907Z,9.25
2019-01-03T10:32:44.661Z,9.30
2019-01-03T10:35:16.647Z,9.33
2019-01-03T10:37:48.190Z,9.70
2019-01-03T10:40:19.733Z,8.73
2019-01-03T10:42:51.400Z,9.50
2019-01-03T10:45:22.821Z,8.50
2019-01-03T10:47:54.180Z,8.30
2019-01-03T10:50:25.447Z,9.43
2019-01-03T10:52:56.814Z,7.70
2019-01-03T10:55:28.165Z,7.85
2019-01-03T10:57:59.718Z,7.58
2019-01-03T11:00:31.060Z,7.22
2019-01-03T11:03:02.649Z,8.03
2019-01-03T11:05:34.068Z,8.55
2019-01-03T11:08:05.565Z,7.92
2019-01-03T11:10:36.991Z,7.35
2019-01-03T11:13:08.290Z,8.35
2019-01-03T11:15:39.499Z,8.53
2019-01-03T11:18:10.772Z,9.13
2019-01-03T11:20:42.059Z,7.90
2019-01-03T11:23:13.332Z,7.90
2019-01-03T11:25:44.530Z,7.83
2019-01-03T11:28:15.712Z,7.37
2019-01-03T11:30:47.197Z,8.15
2019-01-03T11:33:18.325Z,10.30
2019-01-03T11:35:49.718Z,9.73
2019-01-03T11:38:20.888Z,10.48
2019-01-03T11:40:52.174Z,9.08
2019-01-03T11:43:23.633Z,10.58
2019-01-03T11:45:55.183Z,9.90
2019-01-03T11:48:26.290Z,8.85
2019-01-03T11:50:57.655Z,7.58
2019-01-03T11:53:28.844Z,8.18
2019-01-03T11:56:00.011Z,8.95
2019-01-03T11:58:31.646Z,7.90
2019-01-03T12:01:03.133Z,8.68
2019-01-03T12:03:34.546Z,9.35
2019-01-03T12:06:05.883Z,8.45
2019-01-03T12:08:36.951Z,9.30
2019-01-03T12:11:08.247Z,8.40
2019-01-03T12:13:39.621Z,10.48
2019-01-03T12:16:10.900Z,9.13
2019-01-03T12:18:42.378Z,7.85
2019-01-03T12:21:13.834Z,8.58
2019-01-03T12:23:44.936Z,8.90
2019-01-03T12:26:16.195Z,8.83
2019-01-03T12:28:47.587Z,9.38
2019-01-03T12:31:19.094Z,10.08
2019-01-03T12:33:50.337Z,9.55
2019-01-03T12:36:21.795Z,8.73
2019-01-03T12:38:53.200Z,9.45
2019-01-03T12:41:24.649Z,9.35
2019-01-03T12:43:55.792Z,9.18
2019-01-03T12:46:26.967Z,8.70
2019-01-03T12:48:58.080Z,9.35
2019-01-03T12:51:29.448Z,10.48
2019-01-03T12:54:00.587Z,10.95
2019-01-03T12:56:32.045Z,11.78
2019-01-03T12:59:03.390Z,12.40
2019-01-03T13:01:34.720Z,11.05
2019-01-03T13:04:06.360Z,9.98
2019-01-03T13:06:37.694Z,10.25
2019-01-03T13:09:17.731Z,9.88
2019-01-03T13:11:49.567Z,8.75
2019-01-03T13:14:20.878Z,7.37
2019-01-03T13:16:52.410Z,6.97
2019-01-03T13:19:23.885Z,6.20
2019-01-03T13:21:55.363Z,6.05
2019-01-03T13:24:26.697Z,8.60
2019-01-03T13:26:58.108Z,6.83
2019-01-03T13:29:29.570Z,6.95
2019-01-03T13:32:01.217Z,6.80
2019-01-03T13:34:32.598Z,6.50
2019-01-03T13:37:04.155Z,6.20
2019-01-03T13:39:35.640Z,7.70
2019-01-03T13:42:06.953Z,7.50
2019-01-03T13:44:38.247Z,7.40
2019-01-03T13:47:09.656Z,7.20
2019-01-03T13:49:41.245Z,7.75
2019-01-03T13:52:12.807Z,7.45
2019-01-03T13:54:46.301Z,5.92
2019-01-03T13:57:17.735Z,6.47
2019-01-03T13:59:49.114Z,6.33
2019-01-03T14:02:20.582Z,6.60
2019-01-03T14:04:52.063Z,6.65
2019-01-03T14:07:23.456Z,8.08
2019-01-03T14:09:54.973Z,7.62
2019-01-03T14:12:26.525Z,6.72
2019-01-03T14:14:58.105Z,6.42
2019-01-03T14:17:29.647Z,6.87
2019-01-03T14:20:01.051Z,6.20
2019-01-03T14:22:32.565Z,7.35
2019-01-03T14:25:04.169Z,8.30
2019-01-03T14:27:35.776Z,7.55
2019-01-03T14:30:07.847Z,8.55
2019-01-03T14:32:39.184Z,8.45
2019-01-03T14:35:10.524Z,8.78
2019-01-03T14:37:41.817Z,8.03
2019-01-03T14:40:12.994Z,11.00
2019-01-03T14:42:44.245Z,9.33
2019-01-03T14:45:15.598Z,11.50
2019-01-03T14:47:47.111Z,9.30
2019-01-03T14:50:18.300Z,10.88
2019-01-03T14:52:49.430Z,8.83
2019-01-03T14:55:20.647Z,8.00
2019-01-03T14:57:51.931Z,8.23
2019-01-03T15:00:23.590Z,9.10
2019-01-03T15:02:55.177Z,10.82
2019-01-03T15:05:26.529Z,9.68
2019-01-03T15:07:58.210Z,9.83
2019-01-03T15:10:29.435Z,8.78
2019-01-03T15:13:00.546Z,7.72
2019-01-03T15:15:31.902Z,8.35
2019-01-03T15:18:03.251Z,7.60
2019-01-03T15:20:34.483Z,7.75
2019-01-03T15:23:05.992Z,8.43
2019-01-03T15:25:37.236Z,8.30
2019-01-03T15:28:08.711Z,8.55
2019-01-03T15:30:39.898Z,9.63
2019-01-03T15:33:11.339Z,8.55
2019-01-03T15:35:42.786Z,8.05
2019-01-03T15:38:14.124Z,8.80
2019-01-03T15:40:45.337Z,8.43
2019-01-03T15:43:16.576Z,9.08
2019-01-03T15:45:47.716Z,8.03
2019-01-03T15:48:19.157Z,10.10
2019-01-03T15:50:50.466Z,9.65
2019-01-03T15:53:21.619Z,9.40
2019-01-03T15:55:52.992Z,9.83
2019-01-03T15:58:24.425Z,11.18
2019-01-03T16:00:55.574Z,8.68
2019-01-03T16:03:26.951Z,9.78
2019-01-03T16:05:58.172Z,10.35
2019-01-03T16:08:29.877Z,8.80
2019-01-03T16:11:01.009Z,9.18
2019-01-03T16:13:32.135Z,8.70
2019-01-03T16:16:03.235Z,9.23
2019-01-03T16:18:34.648Z,9.90
2019-01-03T16:21:06.036Z,9.35
2019-01-03T16:23:37.513Z,8.75
2019-01-03T16:26:08.950Z,9.40
2019-01-03T16:28:40.141Z,8.75
2019-01-03T16:31:11.392Z,9.60
2019-01-03T16:33:42.626Z,10.23
2019-01-03T16:36:14.049Z,9.58
2019-01-03T16:38:45.403Z,9.38
2019-01-03T16:41:16.609Z,9.05
2019-01-03T16:43:48.097Z,8.70
2019-01-03T16:46:19.371Z,8.10
2019-01-03T16:48:50.490Z,9.10
2019-01-03T16:51:22.030Z,9.70
2019-01-03T16:53:53.473Z,8.73
2019-01-03T16:56:24.642Z,11.43
2019-01-03T16:58:56.211Z,9.43
2019-01-03T17:01:27.594Z,9.13
2019-01-03T17:03:58.918Z,8.40
2019-01-03T17:06:30.309Z,8.73
2019-01-03T17:09:01.837Z,8.85
2019-01-03T17:11:34.870Z,8.20
2019-01-03T17:14:06.428Z,9.08
2019-01-03T17:16:37.491Z,9.08
2019-01-03T17:19:09.016Z,8.13
2019-01-03T17:21:40.154Z,9.48
2019-01-03T17:24:11.449Z,9.08
2019-01-03T17:26:42.766Z,9.53
2019-01-03T17:29:14.115Z,9.18
2019-01-03T17:31:45.634Z,9.50
2019-01-03T17:34:17.177Z,9.85
2019-01-03T17:36:48.413Z,9.20
2019-01-03T17:39:19.674Z,8.00
2019-01-03T17:41:51.040Z,8.98
2019-01-03T17:44:22.406Z,8.85
2019-01-03T17:46:53.605Z,10.35
2019-01-03T17:49:24.989Z,9.88
2019-01-03T17:51:56.316Z,10.25
2019-01-03T17:54:27.838Z,10.53
2019-01-03T17:56:59.303Z,8.90
2019-01-03T17:59:30.765Z,9.85
2019-01-03T18:02:02.216Z,10.23
2019-01-03T18:04:33.603Z,10.32
2019-01-03T18:07:05.024Z,11.05
2019-01-03T18:09:36.341Z,10.03
2019-01-03T18:12:07.612Z,9.55
2019-01-03T18:14:38.999Z,9.13
2019-01-03T18:17:10.326Z,8.83
2019-01-03T18:19:41.918Z,8.90
2019-01-03T18:22:12.998Z,8.73
2019-01-03T18:24:44.404Z,8.30
2019-01-03T18:27:15.707Z,8.80
2019-01-03T18:29:46.885Z,15.63
2019-01-03T18:32:18.106Z,9.53
2019-01-03T18:34:49.557Z,9.85
2019-01-03T18:37:20.690Z,8.85
2019-01-03T18:39:52.146Z,7.55
2019-01-03T18:42:23.308Z,7.90
2019-01-03T18:44:54.783Z,7.85
2019-01-03T18:47:26.063Z,8.38
2019-01-03T18:49:57.488Z,8.95
2019-01-03T18:52:29.062Z,7.62
2019-01-03T18:55:00.521Z,8.25
2019-01-03T18:57:31.882Z,7.85
2019-01-03T19:00:03.498Z,7.47
2019-01-03T19:02:36.375Z,10.70
2019-01-03T19:05:07.991Z,8.10
2019-01-03T19:07:39.309Z,7.62
2019-01-03T19:10:11.381Z,7.67
2019-01-03T19:12:42.759Z,7.15
2019-01-03T19:15:14.331Z,7.25
2019-01-03T19:17:45.602Z,7.10
2019-01-03T19:20:16.993Z,7.22
2019-01-03T19:22:48.432Z,7.35
2019-01-03T19:25:21.429Z,6.92
2019-01-03T19:27:53.015Z,7.08
2019-01-03T19:30:24.473Z,6.95
2019-01-03T19:32:55.967Z,7.78
2019-01-03T19:35:27.148Z,6.83
2019-01-03T19:37:58.494Z,4.92
2019-01-03T19:40:29.854Z,7.10
2019-01-03T19:43:02.049Z,7.37
2019-01-03T19:45:33.376Z,6.80
2019-01-03T19:48:04.655Z,6.78
2019-01-03T19:50:37.042Z,5.87
2019-01-03T19:53:08.397Z,6.42
2019-01-03T19:55:39.671Z,6.15
2019-01-03T19:58:11.229Z,6.97
2019-01-03T20:00:42.551Z,6.78
2019-01-03T20:03:13.896Z,6.87
2019-01-03T20:05:45.471Z,7.42
2019-01-03T20:08:17.207Z,6.95
2019-01-03T20:10:48.605Z,7.95
2019-01-03T20:13:20.079Z,7.22
2019-01-03T20:15:51.649Z,6.58
2019-01-03T20:18:22.867Z,6.90
2019-01-03T20:20:54.396Z,8.03
2019-01-03T20:23:25.907Z,7.58
2019-01-03T20:25:57.100Z,6.12
2019-01-03T20:28:28.450Z,6.17
2019-01-03T20:30:59.635Z,6.55
2019-01-03T20:33:31.183Z,6.15
2019-01-03T20:36:02.419Z,5.72
2019-01-03T20:38:33.694Z,6.55
2019-01-03T20:41:05.086Z,6.25
2019-01-03T20:43:39.223Z,6.33
2019-01-03T20:46:09.217Z,7.12
2019-01-03T20:48:40.609Z,6.35
2019-01-03T20:51:11.994Z,6.58
2019-01-03T20:53:43.158Z,6.30
2019-01-03T20:56:14.904Z,8.30
2019-01-03T20:58:46.295Z,5.83
2019-01-03T21:01:17.762Z,5.60
2019-01-03T21:03:48.903Z,5.55
2019-01-03T21:06:20.056Z,5.12
2019-01-03T21:08:51.236Z,5.90
2019-01-03T21:11:22.436Z,6.03
2019-01-03T21:13:53.772Z,5.87
2019-01-03T21:16:25.181Z,5.97
2019-01-03T21:18:56.317Z,5.92
2019-01-03T21:21:27.595Z,5.65
2019-01-03T21:23:59.011Z,5.62
2019-01-03T21:26:30.142Z,5.28
2019-01-03T21:29:01.227Z,5.78
2019-01-03T21:31:32.695Z,5.47
2019-01-03T21:34:04.066Z,5.87
2019-01-03T21:36:35.738Z,8.70
2019-01-03T21:39:07.468Z,7.50
2019-01-03T21:41:39.229Z,6.17
2019-01-03T21:44:10.522Z,7.25
2019-01-03T21:46:41.971Z,7.28
2019-01-03T21:49:13.140Z,5.75
2019-01-03T21:51:44.543Z,5.35
2019-01-03T21:54:18.761Z,5.62
2019-01-03T21:56:48.683Z,7.70
2019-01-03T21:59:20.091Z,7.17
2019-01-03T22:01:51.513Z,7.42
2019-01-03T22:04:22.863Z,7.45
2019-01-03T22:06:54.344Z,7.95
2019-01-03T22:09:25.810Z,7.87
2019-01-03T22:11:56.919Z,7.42
2019-01-03T22:14:28.220Z,6.95
2019-01-03T22:16:59.612Z,6.90
2019-01-03T22:19:30.796Z,7.45
2019-01-03T22:22:02.165Z,7.15
2019-01-03T22:24:33.287Z,6.62
2019-01-03T22:27:04.694Z,6.90
2019-01-03T22:29:35.846Z,7.50
2019-01-03T22:32:07.328Z,7.37
2019-01-03T22:34:39.406Z,7.42
2019-01-03T22:37:10.653Z,7.17
2019-01-03T22:39:42.076Z,7.22
2019-01-03T22:42:13.444Z,6.95
2019-01-03T22:44:44.552Z,7.75
2019-01-03T22:47:15.688Z,7.55
2019-01-03T22:49:46.817Z,7.75
2019-01-03T22:52:18.154Z,7.45
2019-01-03T22:54:49.523Z,6.47
2019-01-03T22:57:21.143Z,6.70
2019-01-03T22:59:52.327Z,6.25
2019-01-03T23:02:23.767Z,6.25
2019-01-03T23:04:54.890Z,6.50
2019-01-03T23:07:26.329Z,6.67
2019-01-03T23:09:57.705Z,6.55
2019-01-03T23:12:29.101Z,7.30
2019-01-03T23:15:00.452Z,6.95
2019-01-03T23:17:31.519Z,7.47
2019-01-03T23:20:02.708Z,6.08
2019-01-03T23:22:34.249Z,6.50
2019-01-03T23:25:05.558Z,6.50
2019-01-03T23:27:36.923Z,6.33
2019-01-03T23:30:08.878Z,7.03
2019-01-03T23:32:40.344Z,7.20
2019-01-03T23:35:11.778Z,7.17
2019-01-03T23:37:42.957Z,7.10
2019-01-03T23:40:14.383Z,6.95
2019-01-03T23:42:45.906Z,6.42
2019-01-03T23:45:19.010Z,7.40
2019-01-03T23:47:52.293Z,8.63
2019-01-03T23:50:26.524Z,7.40
2019-01-03T23:52:57.821Z,7.20
2019-01-03T23:55:33.410Z,6.55
2019-01-03T23:58:04.784Z,6.30
